createdAt,value
2019-05-21T00:01:54.909Z,16.98
2019-05-21T00:04:28.269Z,16.95
2019-05-21T00:06:55.985Z,17.20
2019-05-21T00:09:25.691Z,17.15
2019-05-21T00:11:55.384Z,16.96
2019-05-21T00:14:25.076Z,17.15
2019-05-21T00:16:54.927Z,17.30
2019-05-21T00:19:24.624Z,17.18
2019-05-21T00:21:54.328Z,17.14
2019-05-21T00:24:24.011Z,17.00
2019-05-21T00:26:53.759Z,16.85
2019-05-21T00:30:00.076Z,16.84
2019-05-21T00:33:06.098Z,16.68
2019-05-21T00:36:12.257Z,16.94
2019-05-21T00:39:18.094Z,16.87
2019-05-21T00:42:08.930Z,16.99
2019-05-21T00:44:43.470Z,17.00
2019-05-21T00:47:14.132Z,16.86
2019-05-21T00:49:43.876Z,16.51
2019-05-21T00:52:13.732Z,16.61
2019-05-21T00:54:43.549Z,16.50
2019-05-21T00:57:13.467Z,16.70
2019-05-21T00:59:43.255Z,16.62
2019-05-21T01:02:13.047Z,16.51
2019-05-21T01:04:42.788Z,16.71
2019-05-21T01:07:12.657Z,16.47
2019-05-21T01:09:42.408Z,16.47
2019-05-21T01:12:12.311Z,16.31
2019-05-21T01:14:42.101Z,16.22
2019-05-21T01:17:11.991Z,16.30
2019-05-21T01:19:41.730Z,16.04
2019-05-21T01:22:11.583Z,16.07
2019-05-21T01:24:41.410Z,16.16
2019-05-21T01:27:11.237Z,15.95
2019-05-21T01:29:40.971Z,16.02
2019-05-21T01:32:10.857Z,16.03
2019-05-21T01:34:40.567Z,16.18
2019-05-21T01:37:10.383Z,16.35
2019-05-21T01:39:40.129Z,16.20
2019-05-21T01:42:10.030Z,16.10
2019-05-21T01:44:39.778Z,15.88
2019-05-21T01:47:09.634Z,15.78
2019-05-21T01:49:39.387Z,15.93
2019-05-21T01:52:09.227Z,16.10
2019-05-21T01:54:39.020Z,16.04
2019-05-21T01:57:08.856Z,16.01
2019-05-21T01:59:38.611Z,16.02
2019-05-21T02:02:08.384Z,15.84
2019-05-21T02:04:38.222Z,15.75
2019-05-21T02:07:07.986Z,15.75
2019-05-21T02:09:51.816Z,15.60
2019-05-21T02:12:21.624Z,15.82
2019-05-21T02:14:51.514Z,15.65
2019-05-21T02:17:21.361Z,15.66
2019-05-21T02:19:51.105Z,15.63
2019-05-21T02:22:20.922Z,15.68
2019-05-21T02:24:50.807Z,15.66
2019-05-21T02:27:20.545Z,15.71
2019-05-21T02:29:50.557Z,15.61
2019-05-21T02:32:20.375Z,15.46
2019-05-21T02:34:50.284Z,15.72
2019-05-21T02:37:20.110Z,15.77
2019-05-21T02:39:49.858Z,15.75
2019-05-21T02:42:19.699Z,15.67
2019-05-21T02:44:53.712Z,15.50
2019-05-21T02:47:21.223Z,15.50
2019-05-21T02:49:50.961Z,15.60
2019-05-21T02:52:20.801Z,15.59
2019-05-21T02:54:50.697Z,15.58
2019-05-21T02:57:20.537Z,15.55
2019-05-21T02:59:51.935Z,15.40
2019-05-21T03:02:23.342Z,15.49
2019-05-21T03:04:53.155Z,15.59
2019-05-21T03:07:25.578Z,15.39
2019-05-21T03:09:54.475Z,15.48
2019-05-21T03:12:24.189Z,15.58
2019-05-21T03:14:53.870Z,15.42
2019-05-21T03:17:23.647Z,15.40
2019-05-21T03:19:53.405Z,15.39
2019-05-21T03:22:23.213Z,15.34
2019-05-21T03:24:52.961Z,15.26
2019-05-21T03:27:22.713Z,15.21
2019-05-21T03:29:52.457Z,15.27
2019-05-21T03:32:22.363Z,15.30
2019-05-21T03:34:52.191Z,15.19
2019-05-21T03:37:21.960Z,15.37
2019-05-21T03:39:51.785Z,15.22
2019-05-21T03:42:21.745Z,15.13
2019-05-21T03:44:59.866Z,15.30
2019-05-21T03:47:23.065Z,15.14
2019-05-21T03:49:53.566Z,15.19
2019-05-21T03:52:23.445Z,15.11
2019-05-21T03:54:53.264Z,15.25
2019-05-21T03:57:23.978Z,15.13
2019-05-21T03:59:53.807Z,15.10
2019-05-21T04:02:23.546Z,15.17
2019-05-21T04:04:53.309Z,15.11
2019-05-21T04:07:23.098Z,15.17
2019-05-21T04:09:52.933Z,15.14
2019-05-21T04:12:22.969Z,15.10
2019-05-21T04:14:54.740Z,15.09
2019-05-21T04:17:42.620Z,15.07
2019-05-21T04:20:12.807Z,15.22
2019-05-21T04:22:54.368Z,15.11
2019-05-21T04:25:24.232Z,15.08
2019-05-21T04:27:54.078Z,15.09
2019-05-21T04:30:23.961Z,15.11
2019-05-21T04:32:53.735Z,15.07
2019-05-21T04:35:23.507Z,15.05
2019-05-21T04:37:53.270Z,15.08
2019-05-21T04:40:23.100Z,15.18
2019-05-21T04:42:52.855Z,15.19
2019-05-21T04:45:22.687Z,15.17
2019-05-21T04:47:52.446Z,15.19
2019-05-21T04:50:22.318Z,15.35
2019-05-21T04:52:58.956Z,15.33
2019-05-21T04:55:28.700Z,15.28
2019-05-21T04:57:58.520Z,15.38
2019-05-21T05:00:28.426Z,15.35
2019-05-21T05:02:58.387Z,15.37
2019-05-21T05:05:28.298Z,15.43
2019-05-21T05:07:58.214Z,15.49
2019-05-21T05:10:28.166Z,15.47
2019-05-21T05:12:57.995Z,15.38
2019-05-21T05:15:27.787Z,15.40
2019-05-21T05:17:57.633Z,15.43
2019-05-21T05:20:27.533Z,15.44
2019-05-21T05:22:57.360Z,15.31
2019-05-21T05:25:27.156Z,15.27
2019-05-21T05:27:56.980Z,15.39
2019-05-21T05:30:26.791Z,15.40
2019-05-21T05:32:56.488Z,15.68
2019-05-21T05:35:26.181Z,15.40
2019-05-21T05:37:55.985Z,15.35
2019-05-21T05:40:28.272Z,15.34
2019-05-21T05:42:58.418Z,15.53
2019-05-21T05:45:28.596Z,15.54
2019-05-21T05:47:58.728Z,15.34
2019-05-21T05:50:37.869Z,15.38
2019-05-21T05:53:07.658Z,15.38
2019-05-21T05:55:37.323Z,15.39
2019-05-21T05:58:07.072Z,15.47
2019-05-21T06:00:36.885Z,15.38
2019-05-21T06:03:06.664Z,15.40
2019-05-21T06:05:36.587Z,15.74
2019-05-21T06:08:06.326Z,15.64
2019-05-21T06:10:39.859Z,15.68
2019-05-21T06:13:07.623Z,15.70
2019-05-21T06:15:37.386Z,15.71
2019-05-21T06:18:07.266Z,16.09
2019-05-21T06:20:36.975Z,16.12
2019-05-21T06:23:06.720Z,15.87
2019-05-21T06:25:36.508Z,15.94
2019-05-21T06:28:06.188Z,15.94
2019-05-21T06:30:35.898Z,15.99
2019-05-21T06:33:05.743Z,16.02
2019-05-21T06:35:35.469Z,15.99
2019-05-21T06:38:17.349Z,15.78
2019-05-21T06:40:38.566Z,15.84
2019-05-21T06:43:08.435Z,15.84
2019-05-21T06:45:38.202Z,15.82
2019-05-21T06:48:07.958Z,15.69
2019-05-21T06:50:37.963Z,15.88
2019-05-21T06:53:08.190Z,15.77
2019-05-21T06:55:37.937Z,15.88
2019-05-21T06:58:07.746Z,15.92
2019-05-21T07:00:37.470Z,15.96
2019-05-21T07:03:07.248Z,16.14
2019-05-21T07:05:36.962Z,16.28
2019-05-21T07:08:06.722Z,16.37
2019-05-21T07:10:36.445Z,16.31
2019-05-21T07:13:06.194Z,16.21
2019-05-21T07:15:35.906Z,16.28
2019-05-21T07:18:05.784Z,16.44
2019-05-21T07:20:35.498Z,16.13
2019-05-21T07:23:06.346Z,16.13
2019-05-21T07:25:36.162Z,16.00
2019-05-21T07:28:05.952Z,16.06
2019-05-21T07:30:35.807Z,16.29
2019-05-21T07:33:06.266Z,15.98
2019-05-21T07:35:36.414Z,16.10
2019-05-21T07:38:06.179Z,16.16
2019-05-21T07:40:35.902Z,16.30
2019-05-21T07:43:05.619Z,16.39
2019-05-21T07:45:35.458Z,16.83
2019-05-21T07:48:05.298Z,17.05
2019-05-21T07:50:35.079Z,17.37
2019-05-21T07:53:05.431Z,17.40
2019-05-21T07:55:35.156Z,17.29
2019-05-21T07:58:04.925Z,17.57
2019-05-21T08:00:34.781Z,17.27
2019-05-21T08:03:04.509Z,17.67
2019-05-21T08:05:34.251Z,17.87
2019-05-21T08:08:04.191Z,17.81
2019-05-21T08:10:33.964Z,17.75
2019-05-21T08:13:03.747Z,17.75
2019-05-21T08:15:33.422Z,17.87
2019-05-21T08:18:03.218Z,18.10
2019-05-21T08:20:32.898Z,18.16
2019-05-21T08:23:02.695Z,17.85
2019-05-21T08:25:32.616Z,18.16
2019-05-21T08:28:02.350Z,17.90
2019-05-21T08:30:32.030Z,17.89
2019-05-21T08:33:01.919Z,17.99
2019-05-21T08:35:31.674Z,18.09
2019-05-21T08:38:01.457Z,18.29
2019-05-21T08:40:31.372Z,18.44
2019-05-21T08:43:01.402Z,18.27
2019-05-21T08:45:31.157Z,18.32
2019-05-21T08:48:00.952Z,18.26
2019-05-21T08:50:30.795Z,18.64
2019-05-21T08:53:03.224Z,18.91
2019-05-21T08:55:32.153Z,18.93
2019-05-21T08:58:06.847Z,18.61
2019-05-21T09:00:33.664Z,18.29
2019-05-21T09:03:03.534Z,18.36
2019-05-21T09:05:33.349Z,18.51
2019-05-21T09:08:03.102Z,18.37
2019-05-21T09:10:32.848Z,18.63
2019-05-21T09:13:02.697Z,18.63
2019-05-21T09:15:32.424Z,18.63
2019-05-21T09:18:02.211Z,18.94
2019-05-21T09:20:32.149Z,18.78
2019-05-21T09:23:01.904Z,18.71
2019-05-21T09:25:31.800Z,18.90
2019-05-21T09:28:01.622Z,18.72
2019-05-21T09:30:31.416Z,18.66
2019-05-21T09:33:02.649Z,18.76
2019-05-21T09:35:32.406Z,18.92
2019-05-21T09:38:02.218Z,18.98
2019-05-21T09:40:32.447Z,19.18
2019-05-21T09:43:02.357Z,19.00
2019-05-21T09:45:32.139Z,19.13
2019-05-21T09:48:02.038Z,19.16
2019-05-21T09:50:32.010Z,19.29
2019-05-21T09:53:01.892Z,19.80
2019-05-21T09:55:33.721Z,19.34
2019-05-21T09:58:13.836Z,19.81
2019-05-21T10:00:54.572Z,19.58
2019-05-21T10:03:31.882Z,19.25
2019-05-21T10:06:01.752Z,19.46
2019-05-21T10:08:31.453Z,19.58
2019-05-21T10:11:01.437Z,19.68
2019-05-21T10:13:31.229Z,19.67
2019-05-21T10:16:01.654Z,19.68
2019-05-21T10:18:31.532Z,19.84
2019-05-21T10:21:01.367Z,19.65
2019-05-21T10:23:31.235Z,19.41
2019-05-21T10:26:01.021Z,19.09
2019-05-21T10:28:30.772Z,19.16
2019-05-21T10:31:00.805Z,19.23
2019-05-21T10:33:30.622Z,19.04
2019-05-21T10:36:00.420Z,19.13
2019-05-21T10:38:30.247Z,19.15
2019-05-21T10:41:00.061Z,19.37
2019-05-21T10:43:29.929Z,19.21
2019-05-21T10:45:59.664Z,19.40
2019-05-21T10:48:29.467Z,19.21
2019-05-21T10:50:59.341Z,19.40
2019-05-21T10:53:29.284Z,19.49
2019-05-21T10:55:59.010Z,19.28
2019-05-21T10:58:28.814Z,19.15
2019-05-21T11:01:00.294Z,19.11
2019-05-21T11:03:31.675Z,18.95
2019-05-21T11:06:10.002Z,18.98
2019-05-21T11:08:33.171Z,19.21
2019-05-21T11:11:03.069Z,19.45
2019-05-21T11:13:32.905Z,19.34
2019-05-21T11:16:02.943Z,19.16
2019-05-21T11:18:32.721Z,19.26
2019-05-21T11:21:02.520Z,19.00
2019-05-21T11:23:32.273Z,19.13
2019-05-21T11:26:02.242Z,19.07
2019-05-21T11:28:32.030Z,19.08
2019-05-21T11:31:01.877Z,19.16
2019-05-21T11:33:31.643Z,19.28
2019-05-21T11:36:01.396Z,19.51
2019-05-21T11:38:39.486Z,19.38
2019-05-21T11:41:02.655Z,19.51
2019-05-21T11:43:32.406Z,19.48
2019-05-21T11:46:03.174Z,19.48
2019-05-21T11:48:33.370Z,19.47
2019-05-21T11:51:03.341Z,19.41
2019-05-21T11:53:33.289Z,19.40
2019-05-21T11:56:03.060Z,19.24
2019-05-21T11:58:39.390Z,19.25
2019-05-21T12:01:04.718Z,19.21
2019-05-21T12:03:34.661Z,19.21
2019-05-21T12:06:04.638Z,19.21
2019-05-21T12:08:34.502Z,19.26
2019-05-21T12:11:04.273Z,19.28
2019-05-21T12:13:34.066Z,19.13
2019-05-21T12:16:03.879Z,19.05
2019-05-21T12:18:33.585Z,19.03
2019-05-21T12:21:03.426Z,19.26
2019-05-21T12:23:33.127Z,19.36
2019-05-21T12:26:02.977Z,19.42
2019-05-21T12:28:32.705Z,19.42
2019-05-21T12:31:02.448Z,19.22
2019-05-21T12:33:35.007Z,19.36
2019-05-21T12:36:04.352Z,19.25
2019-05-21T12:38:34.119Z,19.14
2019-05-21T12:41:03.925Z,19.11
2019-05-21T12:43:33.773Z,19.11
2019-05-21T12:46:03.692Z,18.99
2019-05-21T12:48:33.586Z,18.82
2019-05-21T12:51:03.432Z,18.58
2019-05-21T12:53:33.215Z,18.49
2019-05-21T12:56:03.070Z,18.32
2019-05-21T12:58:32.845Z,18.34
2019-05-21T13:01:02.721Z,18.34
2019-05-21T13:03:32.511Z,18.40
2019-05-21T13:06:02.675Z,18.13
2019-05-21T13:08:32.712Z,18.34
2019-05-21T13:11:02.518Z,18.08
2019-05-21T13:13:32.282Z,18.08
2019-05-21T13:16:02.022Z,18.12
2019-05-21T13:18:31.802Z,18.26
2019-05-21T13:21:01.569Z,18.30
2019-05-21T13:23:31.474Z,18.21
2019-05-21T13:26:01.221Z,18.31
2019-05-21T13:28:31.039Z,18.45
2019-05-21T13:31:00.962Z,18.37
2019-05-21T13:33:30.764Z,18.41
2019-05-21T13:36:00.621Z,18.63
2019-05-21T13:38:30.365Z,18.42
2019-05-21T13:41:00.543Z,18.44
2019-05-21T13:43:30.343Z,18.40
2019-05-21T13:46:00.110Z,18.81
2019-05-21T13:48:29.919Z,18.64
2019-05-21T13:50:59.681Z,18.69
2019-05-21T13:53:29.542Z,18.69
2019-05-21T13:55:59.385Z,18.53
2019-05-21T13:58:29.151Z,18.48
2019-05-21T14:01:00.294Z,18.37
2019-05-21T14:03:30.188Z,18.27
2019-05-21T14:06:00.109Z,18.39
2019-05-21T14:08:29.974Z,18.08
2019-05-21T14:11:00.032Z,17.99
2019-05-21T14:13:29.821Z,17.90
2019-05-21T14:15:59.676Z,18.01
2019-05-21T14:18:29.519Z,18.01
2019-05-21T14:20:59.514Z,18.12
2019-05-21T14:23:29.288Z,17.88
2019-05-21T14:25:59.123Z,17.89
2019-05-21T14:28:28.956Z,17.96
2019-05-21T14:30:58.959Z,17.91
2019-05-21T14:33:28.872Z,17.82
2019-05-21T14:35:58.652Z,17.86
2019-05-21T14:38:28.591Z,17.88
2019-05-21T14:40:58.554Z,17.93
2019-05-21T14:43:28.378Z,17.93
2019-05-21T14:45:58.164Z,17.92
2019-05-21T14:48:28.023Z,17.94
2019-05-21T14:50:57.778Z,17.96
2019-05-21T14:53:27.656Z,17.99
2019-05-21T14:55:57.393Z,18.03
2019-05-21T14:58:27.152Z,18.04
2019-05-21T15:00:57.068Z,18.08
2019-05-21T15:03:29.504Z,18.01
2019-05-21T15:05:58.492Z,17.97
2019-05-21T15:08:28.238Z,17.97
2019-05-21T15:10:58.013Z,17.93
2019-05-21T15:13:27.740Z,17.93
2019-05-21T15:15:57.498Z,17.94
2019-05-21T15:18:27.293Z,17.87
2019-05-21T15:20:59.207Z,17.92
2019-05-21T15:23:29.228Z,17.89
2019-05-21T15:25:59.013Z,17.86
2019-05-21T15:28:29.008Z,17.86
2019-05-21T15:30:58.815Z,17.84
2019-05-21T15:33:28.609Z,17.78
2019-05-21T15:35:58.378Z,17.76
2019-05-21T15:38:28.179Z,17.77
2019-05-21T15:41:09.655Z,17.78
2019-05-21T15:43:29.706Z,17.87
2019-05-21T15:45:59.764Z,17.87
2019-05-21T15:48:29.853Z,17.75
2019-05-21T15:50:59.611Z,17.80
2019-05-21T15:53:31.107Z,17.89
2019-05-21T15:56:00.828Z,17.95
2019-05-21T15:58:30.693Z,17.94
2019-05-21T16:01:00.548Z,17.85
2019-05-21T16:03:30.352Z,17.79
2019-05-21T16:06:00.299Z,17.79
2019-05-21T16:08:30.178Z,17.72
2019-05-21T16:11:00.004Z,17.69
2019-05-21T16:13:29.832Z,17.69
2019-05-21T16:15:59.775Z,17.65
2019-05-21T16:18:29.598Z,17.60
2019-05-21T16:20:59.481Z,17.62
2019-05-21T16:23:29.424Z,17.62
2019-05-21T16:25:59.410Z,17.56
2019-05-21T16:28:29.195Z,17.53
2019-05-21T16:30:59.125Z,17.46
2019-05-21T16:33:29.064Z,17.41
2019-05-21T16:35:58.823Z,17.40
2019-05-21T16:38:28.725Z,17.38
2019-05-21T16:40:58.619Z,17.32
2019-05-21T16:43:28.381Z,17.30
2019-05-21T16:45:58.324Z,17.27
2019-05-21T16:48:29.482Z,17.25
2019-05-21T16:50:59.794Z,17.26
2019-05-21T16:53:33.278Z,17.24
2019-05-21T16:56:03.289Z,17.22
2019-05-21T16:58:33.362Z,17.21
2019-05-21T17:01:04.879Z,17.09
2019-05-21T17:03:36.600Z,17.04
2019-05-21T17:06:06.803Z,16.97
2019-05-21T17:08:36.624Z,16.93
2019-05-21T17:11:06.608Z,16.84
2019-05-21T17:13:36.507Z,16.84
2019-05-21T17:16:06.364Z,16.85
2019-05-21T17:18:36.114Z,16.88
2019-05-21T17:21:06.022Z,16.87
2019-05-21T17:23:36.022Z,16.89
2019-05-21T17:26:06.135Z,16.80
2019-05-21T17:28:35.807Z,16.74
2019-05-21T17:31:13.631Z,16.71
2019-05-21T17:36:14.537Z,16.67
2019-05-21T17:39:52.372Z,16.57
2019-05-21T17:42:42.016Z,16.55
2019-05-21T17:45:39.224Z,16.51
2019-05-21T17:48:10.892Z,16.41
2019-05-21T17:50:40.572Z,16.39
2019-05-21T17:53:11.265Z,16.32
2019-05-21T17:55:41.015Z,16.27
2019-05-21T17:58:10.808Z,16.24
2019-05-21T18:00:42.495Z,16.31
2019-05-21T18:03:12.742Z,16.19
2019-05-21T18:05:42.690Z,16.05
2019-05-21T18:08:12.479Z,15.98
2019-05-21T18:10:43.077Z,15.91
2019-05-21T18:13:13.307Z,15.87
2019-05-21T18:15:43.239Z,15.83
2019-05-21T18:18:13.054Z,15.71
2019-05-21T18:20:42.821Z,15.67
2019-05-21T18:23:12.555Z,15.66
2019-05-21T18:25:42.333Z,15.62
2019-05-21T18:28:12.040Z,15.55
2019-05-21T18:30:41.986Z,15.48
2019-05-21T18:33:11.787Z,15.45
2019-05-21T18:35:41.571Z,15.37
2019-05-21T18:38:11.297Z,15.37
2019-05-21T18:40:41.087Z,15.38
2019-05-21T18:43:10.847Z,15.38
2019-05-21T18:45:40.641Z,15.39
2019-05-21T18:48:10.401Z,15.37
2019-05-21T18:50:40.252Z,15.33
2019-05-21T18:53:10.297Z,15.29
2019-05-21T18:55:40.211Z,15.16
2019-05-21T18:58:09.989Z,15.10
2019-05-21T19:00:39.785Z,15.08
2019-05-21T19:03:09.727Z,15.08
2019-05-21T19:05:39.534Z,15.01
2019-05-21T19:08:09.244Z,15.02
2019-05-21T19:10:38.933Z,14.94
2019-05-21T19:13:08.718Z,14.94
2019-05-21T19:15:38.505Z,14.93
2019-05-21T19:18:08.258Z,14.92
2019-05-21T19:20:38.039Z,14.98
2019-05-21T19:23:08.106Z,14.97
2019-05-21T19:25:37.884Z,14.97
2019-05-21T19:28:07.624Z,14.89
2019-05-21T19:30:37.551Z,14.77
2019-05-21T19:33:07.646Z,14.75
2019-05-21T19:35:37.510Z,14.70
2019-05-21T19:38:07.214Z,14.71
2019-05-21T19:40:37.064Z,14.62
2019-05-21T19:43:06.735Z,14.56
2019-05-21T19:45:36.449Z,14.53
2019-05-21T19:48:06.198Z,14.49
2019-05-21T19:50:36.008Z,14.44
2019-05-21T19:53:05.937Z,14.42
2019-05-21T19:55:37.248Z,14.35
2019-05-21T19:58:07.000Z,14.35
2019-05-21T20:00:38.514Z,14.33
2019-05-21T20:03:09.203Z,14.33
2019-05-21T20:05:38.879Z,14.28
2019-05-21T20:08:09.009Z,14.32
2019-05-21T20:10:39.665Z,14.24
2019-05-21T20:13:09.467Z,14.22
2019-05-21T20:15:39.422Z,14.24
2019-05-21T20:18:09.576Z,14.23
2019-05-21T20:20:40.339Z,14.13
2019-05-21T20:23:10.630Z,14.17
2019-05-21T20:25:55.251Z,14.10
2019-05-21T20:28:13.197Z,14.07
2019-05-21T20:30:44.755Z,14.00
2019-05-21T20:33:15.930Z,13.99
2019-05-21T20:35:47.399Z,13.94
2019-05-21T20:38:18.475Z,13.91
2019-05-21T20:40:48.332Z,13.92
2019-05-21T20:43:18.328Z,13.93
2019-05-21T20:45:49.441Z,13.82
2019-05-21T20:48:21.427Z,13.78
2019-05-21T20:50:51.453Z,13.77
2019-05-21T20:53:22.101Z,13.79
2019-05-21T20:55:51.915Z,13.79
2019-05-21T20:58:22.875Z,13.75
2019-05-21T21:00:54.297Z,13.75
2019-05-21T21:03:24.656Z,13.68
2019-05-21T21:05:54.734Z,13.63
2019-05-21T21:08:27.857Z,13.59
2019-05-21T21:10:57.696Z,13.57
2019-05-21T21:13:28.377Z,13.58
2019-05-21T21:15:58.588Z,13.54
2019-05-21T21:18:29.155Z,13.45
2019-05-21T21:20:59.024Z,13.49
2019-05-21T21:23:30.294Z,13.52
2019-05-21T21:26:00.243Z,13.50
2019-05-21T21:28:30.134Z,13.48
2019-05-21T21:30:59.980Z,13.46
2019-05-21T21:33:30.649Z,13.43
2019-05-21T21:36:00.406Z,13.40
2019-05-21T21:38:31.929Z,13.37
2019-05-21T21:41:01.622Z,13.37
2019-05-21T21:43:31.522Z,13.35
2019-05-21T21:46:01.478Z,13.38
2019-05-21T21:48:32.105Z,13.31
2019-05-21T21:51:02.627Z,13.36
2019-05-21T21:53:33.369Z,13.28
2019-05-21T21:56:03.081Z,13.27
2019-05-21T21:58:32.757Z,13.26
2019-05-21T22:01:28.314Z,13.29
2019-05-21T22:04:01.726Z,13.23
2019-05-21T22:06:35.542Z,13.16
2019-05-21T22:09:07.896Z,13.22
2019-05-21T22:11:38.407Z,13.20
2019-05-21T22:14:08.335Z,13.17
2019-05-21T22:16:38.035Z,13.16
2019-05-21T22:19:08.417Z,13.15
2019-05-21T22:21:38.151Z,13.16
2019-05-21T22:24:08.178Z,13.12
2019-05-21T22:26:37.951Z,13.17
2019-05-21T22:29:07.703Z,13.13
2019-05-21T22:31:37.743Z,13.15
2019-05-21T22:34:07.559Z,13.14
2019-05-21T22:36:39.494Z,13.14
2019-05-21T22:39:11.283Z,13.16
2019-05-21T22:41:41.049Z,13.15
2019-05-21T22:44:10.828Z,13.15
2019-05-21T22:46:40.491Z,13.07
2019-05-21T22:49:11.105Z,13.11
2019-05-21T22:51:40.836Z,13.04
2019-05-21T22:54:40.911Z,13.03
2019-05-21T22:57:10.574Z,13.06
2019-05-21T22:59:40.275Z,12.96
2019-05-21T23:02:11.916Z,12.99
2019-05-21T23:04:41.769Z,12.90
2019-05-21T23:07:12.102Z,12.97
2019-05-21T23:09:41.882Z,12.95
2019-05-21T23:12:12.084Z,12.90
2019-05-21T23:14:42.095Z,12.88
2019-05-21T23:17:11.946Z,12.84
2019-05-21T23:19:42.121Z,12.82
2019-05-21T23:22:14.189Z,12.79
2019-05-21T23:24:44.025Z,12.82
2019-05-21T23:27:15.346Z,12.82
2019-05-21T23:29:45.125Z,12.78
2019-05-21T23:32:15.277Z,12.79
2019-05-21T23:34:46.360Z,12.74
2019-05-21T23:37:20.555Z,12.71
2019-05-21T23:39:53.144Z,12.71
2019-05-21T23:42:29.432Z,12.65
2019-05-21T23:44:54.915Z,12.62
2019-05-21T23:47:50.747Z,12.56
2019-05-21T23:50:20.645Z,12.55
2019-05-21T23:52:52.702Z,12.56
2019-05-21T23:55:22.679Z,12.57
2019-05-21T23:57:52.694Z,12.58
